sensor_id;sensor_type;location;lat;lon;timestamp;temperature;humidity
18882;DHT22;9573;50.948;11.600;2022-10-17T00:00:58;12.40;99.90
18882;DHT22;9573;50.948;11.600;2022-10-17T00:03:26;12.30;99.90
18882;DHT22;9573;50.948;11.600;2022-10-17T00:05:54;12.30;99.90
18882;DHT22;9573;50.948;11.600;2022-10-17T00:08:21;12.30;99.90
18882;DHT22;9573;50.948;11.600;2022-10-17T00:10:58;12.30;99.90
18882;DHT22;9573;50.948;11.600;2022-10-17T00:13:27;12.20;99.90
18882;DHT22;9573;50.948;11.600;2022-10-17T00:15:54;12.20;99.90
18882;DHT22;9573;50.948;11.600;2022-10-17T00:18:23;12.20;99.90
18882;DHT22;9573;50.948;11.600;2022-10-17T00:20:51;12.20;99.90
18882;DHT22;9573;50.948;11.600;2022-10-17T00:23:18;12.10;99.90
18882;DHT22;9573;50.948;11.600;2022-10-17T00:25:45;12.10;99.90
18882;DHT22;9573;50.948;11.600;2022-10-17T00:28:14;12.10;99.90
18882;DHT22;9573;50.948;11.600;2022-10-17T00:30:41;12.10;99.90
18882;DHT22;9573;50.948;11.600;2022-10-17T00:33:08;12.00;99.90
18882;DHT22;9573;50.948;11.600;2022-10-17T00:35:35;12.00;99.90
18882;DHT22;9573;50.948;11.600;2022-10-17T00:38:04;12.00;99.90
18882;DHT22;9573;50.948;11.600;2022-10-17T00:40:31;12.00;99.90
18882;DHT22;9573;50.948;11.600;2022-10-17T00:42:58;12.00;99.90
18882;DHT22;9573;50.948;11.600;2022-10-17T00:45:26;12.00;99.90
18882;DHT22;9573;50.948;11.600;2022-10-17T00:47:58;12.00;99.90
18882;DHT22;9573;50.948;11.600;2022-10-17T00:50:29;12.00;99.90
18882;DHT22;9573;50.948;11.600;2022-10-17T00:52:58;12.00;99.90
18882;DHT22;9573;50.948;11.600;2022-10-17T00:55:31;12.00;99.90
18882;DHT22;9573;50.948;11.600;2022-10-17T00:58:01;12.00;99.90
18882;DHT22;9573;50.948;11.600;2022-10-17T01:00:30;12.00;99.90
18882;DHT22;9573;50.948;11.600;2022-10-17T01:02:57;12.00;99.90
18882;DHT22;9573;50.948;11.600;2022-10-17T01:05:24;11.90;99.90
18882;DHT22;9573;50.948;11.600;2022-10-17T01:07:52;11.90;99.90
18882;DHT22;9573;50.948;11.600;2022-10-17T01:10:20;11.90;99.90
18882;DHT22;9573;50.948;11.600;2022-10-17T01:12:56;11.90;99.90
18882;DHT22;9573;50.948;11.600;2022-10-17T01:15:39;11.90;99.90
18882;DHT22;9573;50.948;11.600;2022-10-17T01:18:17;11.90;99.90
18882;DHT22;9573;50.948;11.600;2022-10-17T01:21:17;11.90;99.90
18882;DHT22;9573;50.948;11.600;2022-10-17T01:27:41;12.60;99.90
18882;DHT22;9573;50.948;11.600;2022-10-17T01:33:32;11.80;99.90
18882;DHT22;9573;50.948;11.600;2022-10-17T01:36:11;11.80;99.90
18882;DHT22;9573;50.948;11.600;2022-10-17T01:38:46;11.80;99.90
18882;DHT22;9573;50.948;11.600;2022-10-17T01:41:23;11.80;99.90
18882;DHT22;9573;50.948;11.600;2022-10-17T01:43:57;11.80;99.90
18882;DHT22;9573;50.948;11.600;2022-10-17T01:46:29;11.80;99.90
18882;DHT22;9573;50.948;11.600;2022-10-17T01:49:00;11.80;99.90
18882;DHT22;9573;50.948;11.600;2022-10-17T01:51:32;11.80;99.90
18882;DHT22;9573;50.948;11.600;2022-10-17T01:54:04;11.80;99.90
18882;DHT22;9573;50.948;11.600;2022-10-17T01:56:34;11.80;99.90
18882;DHT22;9573;50.948;11.600;2022-10-17T01:59:04;11.80;99.90
18882;DHT22;9573;50.948;11.600;2022-10-17T02:01:37;11.80;99.90
18882;DHT22;9573;50.948;11.600;2022-10-17T02:04:06;11.80;99.90
18882;DHT22;9573;50.948;11.600;2022-10-17T02:06:35;11.80;99.90
18882;DHT22;9573;50.948;11.600;2022-10-17T02:09:16;11.80;99.90
18882;DHT22;9573;50.948;11.600;2022-10-17T02:11:51;11.80;99.90
18882;DHT22;9573;50.948;11.600;2022-10-17T02:14:34;11.70;99.90
18882;DHT22;9573;50.948;11.600;2022-10-17T02:17:14;11.70;99.90
18882;DHT22;9573;50.948;11.600;2022-10-17T02:19:53;11.70;99.90
18882;DHT22;9573;50.948;11.600;2022-10-17T02:22:29;11.70;99.90
18882;DHT22;9573;50.948;11.600;2022-10-17T02:25:08;11.70;99.90
18882;DHT22;9573;50.948;11.600;2022-10-17T02:27:43;11.70;99.90
18882;DHT22;9573;50.948;11.600;2022-10-17T02:30:22;11.70;99.90
18882;DHT22;9573;50.948;11.600;2022-10-17T02:32:57;11.70;99.90
18882;DHT22;9573;50.948;11.600;2022-10-17T02:35:29;11.70;99.90
18882;DHT22;9573;50.948;11.600;2022-10-17T02:37:58;11.60;99.90
18882;DHT22;9573;50.948;11.600;2022-10-17T02:40:28;11.60;99.90
18882;DHT22;9573;50.948;11.600;2022-10-17T02:42:58;11.60;99.90
18882;DHT22;9573;50.948;11.600;2022-10-17T02:45:27;11.50;99.90
18882;DHT22;9573;50.948;11.600;2022-10-17T02:48:03;11.50;99.90
18882;DHT22;9573;50.948;11.600;2022-10-17T02:50:39;11.50;99.90
18882;DHT22;9573;50.948;11.600;2022-10-17T02:53:13;11.50;99.90
18882;DHT22;9573;50.948;11.600;2022-10-17T02:55:47;11.60;99.90
18882;DHT22;9573;50.948;11.600;2022-10-17T02:58:22;11.60;99.90
18882;DHT22;9573;50.948;11.600;2022-10-17T03:00:50;11.50;99.90
18882;DHT22;9573;50.948;11.600;2022-10-17T03:03:21;11.50;99.90
18882;DHT22;9573;50.948;11.600;2022-10-17T03:05:50;11.50;99.90
18882;DHT22;9573;50.948;11.600;2022-10-17T03:08:18;11.50;99.90
18882;DHT22;9573;50.948;11.600;2022-10-17T03:10:45;11.50;99.90
18882;DHT22;9573;50.948;11.600;2022-10-17T03:13:12;11.50;99.90
18882;DHT22;9573;50.948;11.600;2022-10-17T03:15:40;11.50;99.90
18882;DHT22;9573;50.948;11.600;2022-10-17T03:18:07;11.50;99.90
18882;DHT22;9573;50.948;11.600;2022-10-17T03:20:36;11.50;99.90
18882;DHT22;9573;50.948;11.600;2022-10-17T03:23:03;11.40;99.90
18882;DHT22;9573;50.948;11.600;2022-10-17T03:25:30;11.40;99.90
18882;DHT22;9573;50.948;11.600;2022-10-17T03:27:58;11.40;99.90
18882;DHT22;9573;50.948;11.600;2022-10-17T03:30:26;11.50;99.90
18882;DHT22;9573;50.948;11.600;2022-10-17T03:32:53;11.50;99.90
18882;DHT22;9573;50.948;11.600;2022-10-17T03:35:20;11.50;99.90
18882;DHT22;9573;50.948;11.600;2022-10-17T03:37:48;11.40;99.90
18882;DHT22;9573;50.948;11.600;2022-10-17T03:40:16;11.00;99.90
18882;DHT22;9573;50.948;11.600;2022-10-17T03:42:43;11.40;99.90
18882;DHT22;9573;50.948;11.600;2022-10-17T03:45:10;11.50;99.90
18882;DHT22;9573;50.948;11.600;2022-10-17T03:47:37;11.50;99.90
18882;DHT22;9573;50.948;11.600;2022-10-17T03:50:05;11.50;99.90
18882;DHT22;9573;50.948;11.600;2022-10-17T03:52:33;11.40;99.90
18882;DHT22;9573;50.948;11.600;2022-10-17T03:55:01;11.40;99.90
18882;DHT22;9573;50.948;11.600;2022-10-17T03:57:28;11.40;99.90
18882;DHT22;9573;50.948;11.600;2022-10-17T03:59:55;11.40;99.90
18882;DHT22;9573;50.948;11.600;2022-10-17T04:02:22;11.40;99.90
18882;DHT22;9573;50.948;11.600;2022-10-17T04:04:49;11.40;99.90
18882;DHT22;9573;50.948;11.600;2022-10-17T04:07:16;11.40;99.90
18882;DHT22;9573;50.948;11.600;2022-10-17T04:09:43;11.40;99.90
18882;DHT22;9573;50.948;11.600;2022-10-17T04:12:12;11.40;99.90
18882;DHT22;9573;50.948;11.600;2022-10-17T04:14:40;11.40;99.90
18882;DHT22;9573;50.948;11.600;2022-10-17T04:17:07;11.40;99.90
18882;DHT22;9573;50.948;11.600;2022-10-17T04:19:34;11.30;99.90
18882;DHT22;9573;50.948;11.600;2022-10-17T04:22:01;11.40;99.90
18882;DHT22;9573;50.948;11.600;2022-10-17T04:24:28;11.40;99.90
18882;DHT22;9573;50.948;11.600;2022-10-17T04:26:55;11.40;99.90
18882;DHT22;9573;50.948;11.600;2022-10-17T04:29:24;11.40;99.90
18882;DHT22;9573;50.948;11.600;2022-10-17T04:31:51;11.40;99.90
18882;DHT22;9573;50.948;11.600;2022-10-17T04:34:20;11.40;99.90
18882;DHT22;9573;50.948;11.600;2022-10-17T04:36:47;11.40;99.90
18882;DHT22;9573;50.948;11.600;2022-10-17T04:39:16;11.40;99.90
18882;DHT22;9573;50.948;11.600;2022-10-17T04:41:43;11.40;99.90
18882;DHT22;9573;50.948;11.600;2022-10-17T04:44:10;11.40;99.90
18882;DHT22;9573;50.948;11.600;2022-10-17T04:46:39;11.40;99.90
18882;DHT22;9573;50.948;11.600;2022-10-17T04:49:06;11.40;99.90
18882;DHT22;9573;50.948;11.600;2022-10-17T04:51:34;11.40;99.90
18882;DHT22;9573;50.948;11.600;2022-10-17T04:54:01;11.40;99.90
18882;DHT22;9573;50.948;11.600;2022-10-17T04:56:28;11.40;99.90
18882;DHT22;9573;50.948;11.600;2022-10-17T04:58:55;11.40;99.90
18882;DHT22;9573;50.948;11.600;2022-10-17T05:01:25;11.40;99.90
18882;DHT22;9573;50.948;11.600;2022-10-17T05:03:53;11.40;99.90
18882;DHT22;9573;50.948;11.600;2022-10-17T05:06:22;11.40;99.90
18882;DHT22;9573;50.948;11.600;2022-10-17T05:08:50;11.40;99.90
18882;DHT22;9573;50.948;11.600;2022-10-17T05:11:18;11.40;99.90
18882;DHT22;9573;50.948;11.600;2022-10-17T05:13:49;11.40;99.90
18882;DHT22;9573;50.948;11.600;2022-10-17T05:16:17;11.40;99.90
18882;DHT22;9573;50.948;11.600;2022-10-17T05:18:47;11.40;99.90
18882;DHT22;9573;50.948;11.600;2022-10-17T05:21:16;11.40;99.90
18882;DHT22;9573;50.948;11.600;2022-10-17T05:23:44;11.40;99.90
18882;DHT22;9573;50.948;11.600;2022-10-17T05:26:11;11.40;99.90
18882;DHT22;9573;50.948;11.600;2022-10-17T05:28:39;11.40;99.90
18882;DHT22;9573;50.948;11.600;2022-10-17T05:31:07;11.40;99.90
18882;DHT22;9573;50.948;11.600;2022-10-17T05:33:36;11.40;99.90
18882;DHT22;9573;50.948;11.600;2022-10-17T05:36:04;11.50;99.90
18882;DHT22;9573;50.948;11.600;2022-10-17T05:38:34;11.50;99.90
18882;DHT22;9573;50.948;11.600;2022-10-17T05:41:02;11.50;99.90
18882;DHT22;9573;50.948;11.600;2022-10-17T05:43:33;11.60;99.90
18882;DHT22;9573;50.948;11.600;2022-10-17T05:46:03;11.60;99.90
18882;DHT22;9573;50.948;11.600;2022-10-17T05:48:30;11.70;99.90
18882;DHT22;9573;50.948;11.600;2022-10-17T05:50:59;11.80;99.90
18882;DHT22;9573;50.948;11.600;2022-10-17T05:53:29;11.90;99.90
18882;DHT22;9573;50.948;11.600;2022-10-17T05:56:00;12.10;99.90
18882;DHT22;9573;50.948;11.600;2022-10-17T05:58:29;12.20;99.90
18882;DHT22;9573;50.948;11.600;2022-10-17T06:00:58;12.40;99.90
18882;DHT22;9573;50.948;11.600;2022-10-17T06:03:40;12.60;99.90
18882;DHT22;9573;50.948;11.600;2022-10-17T06:06:13;12.80;99.90
18882;DHT22;9573;50.948;11.600;2022-10-17T06:08:41;13.00;99.90
18882;DHT22;9573;50.948;11.600;2022-10-17T06:11:12;13.20;99.90
18882;DHT22;9573;50.948;11.600;2022-10-17T06:13:39;13.40;99.90
18882;DHT22;9573;50.948;11.600;2022-10-17T06:16:07;13.60;99.90
18882;DHT22;9573;50.948;11.600;2022-10-17T06:18:34;13.70;99.90
18882;DHT22;9573;50.948;11.600;2022-10-17T06:21:02;13.80;99.90
18882;DHT22;9573;50.948;11.600;2022-10-17T06:23:30;13.90;99.90
18882;DHT22;9573;50.948;11.600;2022-10-17T06:25:58;14.10;99.90
18882;DHT22;9573;50.948;11.600;2022-10-17T06:28:27;14.20;99.90
18882;DHT22;9573;50.948;11.600;2022-10-17T06:30:54;14.40;99.90
18882;DHT22;9573;50.948;11.600;2022-10-17T06:33:21;14.60;99.90
18882;DHT22;9573;50.948;11.600;2022-10-17T06:35:52;14.90;99.90
18882;DHT22;9573;50.948;11.600;2022-10-17T06:38:21;15.20;99.90
18882;DHT22;9573;50.948;11.600;2022-10-17T06:40:48;15.30;99.90
18882;DHT22;9573;50.948;11.600;2022-10-17T06:43:15;15.40;99.90
18882;DHT22;9573;50.948;11.600;2022-10-17T06:45:44;15.50;99.90
18882;DHT22;9573;50.948;11.600;2022-10-17T06:48:12;15.70;99.90
18882;DHT22;9573;50.948;11.600;2022-10-17T06:50:40;16.00;99.90
18882;DHT22;9573;50.948;11.600;2022-10-17T06:53:09;16.70;99.90
18882;DHT22;9573;50.948;11.600;2022-10-17T06:55:39;17.10;99.90
18882;DHT22;9573;50.948;11.600;2022-10-17T06:58:07;17.10;99.90
18882;DHT22;9573;50.948;11.600;2022-10-17T07:00:34;17.10;99.90
18882;DHT22;9573;50.948;11.600;2022-10-17T07:03:03;17.00;99.90
18882;DHT22;9573;50.948;11.600;2022-10-17T07:05:30;16.90;99.90
18882;DHT22;9573;50.948;11.600;2022-10-17T07:07:57;16.80;99.90
18882;DHT22;9573;50.948;11.600;2022-10-17T07:10:25;16.90;99.90
18882;DHT22;9573;50.948;11.600;2022-10-17T07:12:52;17.10;99.90
18882;DHT22;9573;50.948;11.600;2022-10-17T07:15:19;17.20;99.90
18882;DHT22;9573;50.948;11.600;2022-10-17T07:17:47;17.20;99.90
18882;DHT22;9573;50.948;11.600;2022-10-17T07:20:16;17.20;99.90
18882;DHT22;9573;50.948;11.600;2022-10-17T07:22:43;17.50;99.90
18882;DHT22;9573;50.948;11.600;2022-10-17T07:25:10;17.70;99.90
18882;DHT22;9573;50.948;11.600;2022-10-17T07:27:37;18.00;99.90
18882;DHT22;9573;50.948;11.600;2022-10-17T07:30:06;18.10;99.90
18882;DHT22;9573;50.948;11.600;2022-10-17T07:32:34;18.00;99.90
18882;DHT22;9573;50.948;11.600;2022-10-17T07:35:01;17.90;99.90
18882;DHT22;9573;50.948;11.600;2022-10-17T07:37:29;18.00;99.90
18882;DHT22;9573;50.948;11.600;2022-10-17T07:39:56;18.20;99.90
18882;DHT22;9573;50.948;11.600;2022-10-17T07:42:23;19.10;99.90
18882;DHT22;9573;50.948;11.600;2022-10-17T07:44:52;20.30;99.90
18882;DHT22;9573;50.948;11.600;2022-10-17T07:47:19;21.90;99.90
18882;DHT22;9573;50.948;11.600;2022-10-17T07:49:47;23.00;99.90
18882;DHT22;9573;50.948;11.600;2022-10-17T07:52:17;23.30;99.90
18882;DHT22;9573;50.948;11.600;2022-10-17T07:54:48;23.80;99.90
18882;DHT22;9573;50.948;11.600;2022-10-17T07:57:15;25.40;99.90
18882;DHT22;9573;50.948;11.600;2022-10-17T07:59:43;27.60;99.90
18882;DHT22;9573;50.948;11.600;2022-10-17T08:02:13;30.30;99.90
18882;DHT22;9573;50.948;11.600;2022-10-17T08:04:45;31.50;99.90
18882;DHT22;9573;50.948;11.600;2022-10-17T08:07:12;33.40;99.90
18882;DHT22;9573;50.948;11.600;2022-10-17T08:09:40;34.80;97.00
18882;DHT22;9573;50.948;11.600;2022-10-17T08:12:09;35.80;92.00
18882;DHT22;9573;50.948;11.600;2022-10-17T08:14:37;36.30;87.90
18882;DHT22;9573;50.948;11.600;2022-10-17T08:17:04;36.70;83.30
18882;DHT22;9573;50.948;11.600;2022-10-17T08:19:32;37.40;78.60
18882;DHT22;9573;50.948;11.600;2022-10-17T08:21:59;38.30;73.70
18882;DHT22;9573;50.948;11.600;2022-10-17T08:24:26;38.80;70.50
18882;DHT22;9573;50.948;11.600;2022-10-17T08:26:53;39.20;67.70
18882;DHT22;9573;50.948;11.600;2022-10-17T08:29:24;39.50;65.10
18882;DHT22;9573;50.948;11.600;2022-10-17T08:31:51;39.40;65.10
18882;DHT22;9573;50.948;11.600;2022-10-17T08:34:18;39.40;64.40
18882;DHT22;9573;50.948;11.600;2022-10-17T08:36:45;39.70;64.00
18882;DHT22;9573;50.948;11.600;2022-10-17T08:39:12;40.10;63.20
18882;DHT22;9573;50.948;11.600;2022-10-17T08:42:08;40.50;61.30
18882;DHT22;9573;50.948;11.600;2022-10-17T08:44:52;40.30;59.80
18882;DHT22;9573;50.948;11.600;2022-10-17T08:47:26;40.20;59.50
18882;DHT22;9573;50.948;11.600;2022-10-17T08:49:57;40.30;59.60
18882;DHT22;9573;50.948;11.600;2022-10-17T08:52:32;39.90;58.90
18882;DHT22;9573;50.948;11.600;2022-10-17T08:55:13;39.40;58.10
18882;DHT22;9573;50.948;11.600;2022-10-17T08:57:42;39.40;57.80
18882;DHT22;9573;50.948;11.600;2022-10-17T09:00:16;39.30;57.90
18882;DHT22;9573;50.948;11.600;2022-10-17T09:02:58;38.90;57.80
18882;DHT22;9573;50.948;11.600;2022-10-17T09:05:40;38.70;57.70
18882;DHT22;9573;50.948;11.600;2022-10-17T09:08:23;38.90;57.70
18882;DHT22;9573;50.948;11.600;2022-10-17T09:11:01;39.10;57.60
18882;DHT22;9573;50.948;11.600;2022-10-17T09:13:46;39.30;57.60
18882;DHT22;9573;50.948;11.600;2022-10-17T09:16:34;39.30;57.00
18882;DHT22;9573;50.948;11.600;2022-10-17T09:19:16;39.50;56.40
18882;DHT22;9573;50.948;11.600;2022-10-17T09:21:48;39.20;56.80
18882;DHT22;9573;50.948;11.600;2022-10-17T09:24:21;37.40;58.80
18882;DHT22;9573;50.948;11.600;2022-10-17T09:26:53;35.90;60.90
18882;DHT22;9573;50.948;11.600;2022-10-17T09:29:23;35.10;63.70
18882;DHT22;9573;50.948;11.600;2022-10-17T09:31:58;35.00;63.00
18882;DHT22;9573;50.948;11.600;2022-10-17T09:34:28;35.80;60.90
18882;DHT22;9573;50.948;11.600;2022-10-17T09:36:57;36.80;59.70
18882;DHT22;9573;50.948;11.600;2022-10-17T09:39:26;37.50;58.60
18882;DHT22;9573;50.948;11.600;2022-10-17T09:41:57;38.10;57.80
18882;DHT22;9573;50.948;11.600;2022-10-17T09:44:30;38.50;57.30
18882;DHT22;9573;50.948;11.600;2022-10-17T09:47:19;38.50;56.70
18882;DHT22;9573;50.948;11.600;2022-10-17T09:49:49;38.70;56.70
18882;DHT22;9573;50.948;11.600;2022-10-17T09:52:17;38.80;56.10
18882;DHT22;9573;50.948;11.600;2022-10-17T09:54:47;38.90;55.60
18882;DHT22;9573;50.948;11.600;2022-10-17T09:57:17;38.90;55.80
18882;DHT22;9573;50.948;11.600;2022-10-17T09:59:47;38.80;55.50
18882;DHT22;9573;50.948;11.600;2022-10-17T10:02:25;38.90;56.00
18882;DHT22;9573;50.948;11.600;2022-10-17T10:04:59;38.80;55.40
18882;DHT22;9573;50.948;11.600;2022-10-17T10:07:28;38.90;55.30
18882;DHT22;9573;50.948;11.600;2022-10-17T10:09:57;39.30;55.60
18882;DHT22;9573;50.948;11.600;2022-10-17T10:12:29;39.40;53.90
18882;DHT22;9573;50.948;11.600;2022-10-17T10:15:00;39.10;54.40
18882;DHT22;9573;50.948;11.600;2022-10-17T10:17:34;38.90;54.90
18882;DHT22;9573;50.948;11.600;2022-10-17T10:20:24;38.90;55.50
18882;DHT22;9573;50.948;11.600;2022-10-17T10:23:13;39.10;55.00
18882;DHT22;9573;50.948;11.600;2022-10-17T10:25:54;39.20;55.00
18882;DHT22;9573;50.948;11.600;2022-10-17T10:28:26;39.10;54.40
18882;DHT22;9573;50.948;11.600;2022-10-17T10:30:56;38.90;54.30
18882;DHT22;9573;50.948;11.600;2022-10-17T10:33:27;38.60;54.80
18882;DHT22;9573;50.948;11.600;2022-10-17T10:35:57;38.30;55.20
18882;DHT22;9573;50.948;11.600;2022-10-17T10:38:27;38.20;55.50
18882;DHT22;9573;50.948;11.600;2022-10-17T10:40:55;38.10;55.70
18882;DHT22;9573;50.948;11.600;2022-10-17T10:43:32;38.10;55.70
18882;DHT22;9573;50.948;11.600;2022-10-17T10:46:05;38.10;55.30
18882;DHT22;9573;50.948;11.600;2022-10-17T10:48:51;38.10;55.40
18882;DHT22;9573;50.948;11.600;2022-10-17T10:51:24;37.80;54.90
18882;DHT22;9573;50.948;11.600;2022-10-17T10:53:59;37.10;55.60
18882;DHT22;9573;50.948;11.600;2022-10-17T10:56:33;37.20;56.20
18882;DHT22;9573;50.948;11.600;2022-10-17T10:59:12;36.90;55.70
18882;DHT22;9573;50.948;11.600;2022-10-17T11:01:48;36.90;56.30
18882;DHT22;9573;50.948;11.600;2022-10-17T11:04:27;37.10;56.60
18882;DHT22;9573;50.948;11.600;2022-10-17T11:07:01;36.70;55.90
18882;DHT22;9573;50.948;11.600;2022-10-17T11:09:39;36.70;56.00
18882;DHT22;9573;50.948;11.600;2022-10-17T11:12:18;36.90;56.30
18882;DHT22;9573;50.948;11.600;2022-10-17T11:14:52;37.20;55.70
18882;DHT22;9573;50.948;11.600;2022-10-17T11:17:29;37.40;55.20
18882;DHT22;9573;50.948;11.600;2022-10-17T11:20:10;37.50;56.20
18882;DHT22;9573;50.948;11.600;2022-10-17T11:22:43;37.40;55.90
18882;DHT22;9573;50.948;11.600;2022-10-17T11:25:23;37.20;55.90
18882;DHT22;9573;50.948;11.600;2022-10-17T11:27:59;36.80;55.60
18882;DHT22;9573;50.948;11.600;2022-10-17T11:30:31;36.60;56.30
18882;DHT22;9573;50.948;11.600;2022-10-17T11:33:04;36.10;56.10
18882;DHT22;9573;50.948;11.600;2022-10-17T11:35:36;35.90;56.80
18882;DHT22;9573;50.948;11.600;2022-10-17T11:38:15;35.40;56.50
18882;DHT22;9573;50.948;11.600;2022-10-17T11:40:49;34.70;57.30
18882;DHT22;9573;50.948;11.600;2022-10-17T11:43:20;33.90;58.60
18882;DHT22;9573;50.948;11.600;2022-10-17T11:45:51;32.90;61.00
18882;DHT22;9573;50.948;11.600;2022-10-17T11:48:25;32.30;61.50
18882;DHT22;9573;50.948;11.600;2022-10-17T11:51:02;31.80;62.30
18882;DHT22;9573;50.948;11.600;2022-10-17T11:53:45;31.70;63.90
18882;DHT22;9573;50.948;11.600;2022-10-17T11:56:18;31.60;64.00
18882;DHT22;9573;50.948;11.600;2022-10-17T11:58:52;31.60;64.50
18882;DHT22;9573;50.948;11.600;2022-10-17T12:01:30;31.40;64.90
18882;DHT22;9573;50.948;11.600;2022-10-17T12:04:13;31.50;65.20
18882;DHT22;9573;50.948;11.600;2022-10-17T12:06:55;31.40;65.20
18882;DHT22;9573;50.948;11.600;2022-10-17T12:09:40;31.80;65.10
18882;DHT22;9573;50.948;11.600;2022-10-17T12:12:23;32.00;64.90
18882;DHT22;9573;50.948;11.600;2022-10-17T12:14:52;32.40;64.20
18882;DHT22;9573;50.948;11.600;2022-10-17T12:17:29;32.60;62.70
18882;DHT22;9573;50.948;11.600;2022-10-17T12:20:33;32.50;63.30
18882;DHT22;9573;50.948;11.600;2022-10-17T12:23:24;32.20;64.50
18882;DHT22;9573;50.948;11.600;2022-10-17T12:25:54;32.30;63.30
18882;DHT22;9573;50.948;11.600;2022-10-17T12:28:29;32.50;63.00
18882;DHT22;9573;50.948;11.600;2022-10-17T12:30:59;32.90;62.90
18882;DHT22;9573;50.948;11.600;2022-10-17T12:33:32;33.30;62.80
18882;DHT22;9573;50.948;11.600;2022-10-17T12:42:31;33.50;62.50
18882;DHT22;9573;50.948;11.600;2022-10-17T12:44:59;33.90;61.50
18882;DHT22;9573;50.948;11.600;2022-10-17T12:47:36;34.00;60.40
18882;DHT22;9573;50.948;11.600;2022-10-17T12:53:39;34.30;59.50
18882;DHT22;9573;50.948;11.600;2022-10-17T12:56:12;34.20;59.90
18882;DHT22;9573;50.948;11.600;2022-10-17T12:58:42;34.30;59.40
18882;DHT22;9573;50.948;11.600;2022-10-17T13:01:17;33.80;59.60
18882;DHT22;9573;50.948;11.600;2022-10-17T13:03:47;33.40;60.10
18882;DHT22;9573;50.948;11.600;2022-10-17T13:06:20;33.00;60.70
18882;DHT22;9573;50.948;11.600;2022-10-17T13:08:52;32.90;61.60
18882;DHT22;9573;50.948;11.600;2022-10-17T13:11:25;33.00;61.20
18882;DHT22;9573;50.948;11.600;2022-10-17T13:13:56;33.00;61.60
18882;DHT22;9573;50.948;11.600;2022-10-17T13:16:27;32.50;60.70
18882;DHT22;9573;50.948;11.600;2022-10-17T13:18:55;32.30;61.50
18882;DHT22;9573;50.948;11.600;2022-10-17T13:21:23;31.80;62.00
18882;DHT22;9573;50.948;11.600;2022-10-17T13:23:50;31.80;62.70
18882;DHT22;9573;50.948;11.600;2022-10-17T13:26:20;31.60;62.80
18882;DHT22;9573;50.948;11.600;2022-10-17T13:29:03;31.60;63.20
18882;DHT22;9573;50.948;11.600;2022-10-17T13:31:32;31.20;62.90
18882;DHT22;9573;50.948;11.600;2022-10-17T13:34:02;30.90;63.40
18882;DHT22;9573;50.948;11.600;2022-10-17T13:36:32;30.60;64.20
18882;DHT22;9573;50.948;11.600;2022-10-17T13:39:06;30.40;65.10
18882;DHT22;9573;50.948;11.600;2022-10-17T13:41:34;30.30;65.70
18882;DHT22;9573;50.948;11.600;2022-10-17T13:44:11;30.30;66.10
18882;DHT22;9573;50.948;11.600;2022-10-17T13:46:40;30.20;66.40
18882;DHT22;9573;50.948;11.600;2022-10-17T13:49:13;29.60;66.60
18882;DHT22;9573;50.948;11.600;2022-10-17T13:51:45;29.20;67.90
18882;DHT22;9573;50.948;11.600;2022-10-17T13:54:18;28.70;68.90
18882;DHT22;9573;50.948;11.600;2022-10-17T13:56:54;28.30;70.20
18882;DHT22;9573;50.948;11.600;2022-10-17T13:59:26;28.00;71.10
18882;DHT22;9573;50.948;11.600;2022-10-17T14:01:57;28.00;71.70
18882;DHT22;9573;50.948;11.600;2022-10-17T14:04:26;27.90;72.20
18882;DHT22;9573;50.948;11.600;2022-10-17T14:06:54;27.70;72.40
18882;DHT22;9573;50.948;11.600;2022-10-17T14:09:23;27.50;72.90
18882;DHT22;9573;50.948;11.600;2022-10-17T14:12:00;27.30;73.50
18882;DHT22;9573;50.948;11.600;2022-10-17T14:14:30;27.20;74.10
18882;DHT22;9573;50.948;11.600;2022-10-17T14:16:58;27.00;74.50
18882;DHT22;9573;50.948;11.600;2022-10-17T14:19:26;26.90;75.00
18882;DHT22;9573;50.948;11.600;2022-10-17T14:22:02;26.90;75.40
18882;DHT22;9573;50.948;11.600;2022-10-17T14:24:42;26.80;75.60
18882;DHT22;9573;50.948;11.600;2022-10-17T14:27:26;26.60;76.00
18882;DHT22;9573;50.948;11.600;2022-10-17T14:29:58;26.50;76.40
18882;DHT22;9573;50.948;11.600;2022-10-17T14:32:28;26.40;76.70
18882;DHT22;9573;50.948;11.600;2022-10-17T14:34:59;26.30;77.00
18882;DHT22;9573;50.948;11.600;2022-10-17T14:37:35;26.20;77.60
18882;DHT22;9573;50.948;11.600;2022-10-17T14:40:05;26.10;78.00
18882;DHT22;9573;50.948;11.600;2022-10-17T14:42:38;25.90;78.50
18882;DHT22;9573;50.948;11.600;2022-10-17T14:45:11;26.00;79.10
18882;DHT22;9573;50.948;11.600;2022-10-17T14:47:40;25.80;79.50
18882;DHT22;9573;50.948;11.600;2022-10-17T14:50:21;25.70;80.00
18882;DHT22;9573;50.948;11.600;2022-10-17T14:52:59;25.70;80.60
18882;DHT22;9573;50.948;11.600;2022-10-17T14:55:30;25.60;81.10
18882;DHT22;9573;50.948;11.600;2022-10-17T14:57:59;25.50;81.40
18882;DHT22;9573;50.948;11.600;2022-10-17T15:00:28;25.40;81.90
18882;DHT22;9573;50.948;11.600;2022-10-17T15:02:55;25.40;82.50
18882;DHT22;9573;50.948;11.600;2022-10-17T15:05:22;25.30;83.40
18882;DHT22;9573;50.948;11.600;2022-10-17T15:07:50;25.20;84.30
18882;DHT22;9573;50.948;11.600;2022-10-17T15:10:30;25.10;85.60
18882;DHT22;9573;50.948;11.600;2022-10-17T15:12:59;24.90;86.80
18882;DHT22;9573;50.948;11.600;2022-10-17T15:15:29;24.80;87.70
18882;DHT22;9573;50.948;11.600;2022-10-17T15:17:56;24.60;88.60
18882;DHT22;9573;50.948;11.600;2022-10-17T15:20:25;24.50;89.10
18882;DHT22;9573;50.948;11.600;2022-10-17T15:22:55;24.40;89.40
18882;DHT22;9573;50.948;11.600;2022-10-17T15:25:24;24.30;90.60
18882;DHT22;9573;50.948;11.600;2022-10-17T15:27:52;24.10;91.20
18882;DHT22;9573;50.948;11.600;2022-10-17T15:30:21;24.00;91.40
18882;DHT22;9573;50.948;11.600;2022-10-17T15:32:52;23.80;91.90
18882;DHT22;9573;50.948;11.600;2022-10-17T15:35:20;23.70;92.00
18882;DHT22;9573;50.948;11.600;2022-10-17T15:37:48;23.50;91.90
18882;DHT22;9573;50.948;11.600;2022-10-17T15:40:20;23.40;92.10
18882;DHT22;9573;50.948;11.600;2022-10-17T15:42:49;23.30;92.20
18882;DHT22;9573;50.948;11.600;2022-10-17T15:45:18;23.10;92.40
18882;DHT22;9573;50.948;11.600;2022-10-17T15:47:51;23.00;92.60
18882;DHT22;9573;50.948;11.600;2022-10-17T15:50:19;22.90;92.80
18882;DHT22;9573;50.948;11.600;2022-10-17T15:52:47;22.80;92.80
18882;DHT22;9573;50.948;11.600;2022-10-17T15:55:16;22.60;93.40
18882;DHT22;9573;50.948;11.600;2022-10-17T15:57:44;22.50;93.90
18882;DHT22;9573;50.948;11.600;2022-10-17T16:00:16;22.30;94.40
18882;DHT22;9573;50.948;11.600;2022-10-17T16:02:45;22.10;94.60
18882;DHT22;9573;50.948;11.600;2022-10-17T16:05:17;22.00;95.20
18882;DHT22;9573;50.948;11.600;2022-10-17T16:07:48;21.70;96.20
18882;DHT22;9573;50.948;11.600;2022-10-17T16:10:16;21.50;96.50
18882;DHT22;9573;50.948;11.600;2022-10-17T16:12:43;21.40;96.80